sensor_id;sensor_type;location;lat;lon;timestamp;P1;durP1;ratioP1;P2;durP2;ratioP2
6195;SDS011;3131;42.630;23.382;2023-01-08T00:00:47;10.60;;;4.33;;
6195;SDS011;3131;42.630;23.382;2023-01-08T00:03:16;9.70;;;5.40;;
6195;SDS011;3131;42.630;23.382;2023-01-08T00:05:46;6.07;;;4.10;;
6195;SDS011;3131;42.630;23.382;2023-01-08T00:08:16;12.23;;;6.40;;
6195;SDS011;3131;42.630;23.382;2023-01-08T00:10:52;10.37;;;5.87;;
6195;SDS011;3131;42.630;23.382;2023-01-08T00:13:21;15.17;;;7.70;;
6195;SDS011;3131;42.630;23.382;2023-01-08T00:16:08;9.17;;;4.73;;
6195;SDS011;3131;42.630;23.382;2023-01-08T00:18:39;16.43;;;6.40;;
6195;SDS011;3131;42.630;23.382;2023-01-08T00:21:09;11.63;;;5.97;;
6195;SDS011;3131;42.630;23.382;2023-01-08T00:23:39;10.07;;;6.00;;
6195;SDS011;3131;42.630;23.382;2023-01-08T00:26:09;13.03;;;7.03;;
6195;SDS011;3131;42.630;23.382;2023-01-08T00:28:39;8.47;;;5.27;;
6195;SDS011;3131;42.630;23.382;2023-01-08T00:31:09;13.20;;;5.93;;
6195;SDS011;3131;42.630;23.382;2023-01-08T00:33:39;11.93;;;6.73;;
6195;SDS011;3131;42.630;23.382;2023-01-08T00:36:10;9.53;;;5.47;;
6195;SDS011;3131;42.630;23.382;2023-01-08T00:38:41;12.30;;;6.03;;
6195;SDS011;3131;42.630;23.382;2023-01-08T00:41:11;9.27;;;6.17;;
6195;SDS011;3131;42.630;23.382;2023-01-08T00:43:43;13.70;;;6.27;;
6195;SDS011;3131;42.630;23.382;2023-01-08T00:46:12;9.00;;;6.33;;
6195;SDS011;3131;42.630;23.382;2023-01-08T00:48:42;12.90;;;6.63;;
6195;SDS011;3131;42.630;23.382;2023-01-08T00:51:11;10.20;;;4.43;;
6195;SDS011;3131;42.630;23.382;2023-01-08T00:53:41;13.53;;;5.93;;
6195;SDS011;3131;42.630;23.382;2023-01-08T00:56:10;7.97;;;5.53;;
6195;SDS011;3131;42.630;23.382;2023-01-08T00:58:40;12.90;;;7.00;;
6195;SDS011;3131;42.630;23.382;2023-01-08T01:01:10;14.80;;;6.33;;
6195;SDS011;3131;42.630;23.382;2023-01-08T01:03:40;8.50;;;5.00;;
6195;SDS011;3131;42.630;23.382;2023-01-08T01:06:11;12.37;;;6.30;;
6195;SDS011;3131;42.630;23.382;2023-01-08T01:08:42;9.30;;;5.27;;
6195;SDS011;3131;42.630;23.382;2023-01-08T01:11:12;8.73;;;5.07;;
6195;SDS011;3131;42.630;23.382;2023-01-08T01:13:44;9.00;;;5.50;;
6195;SDS011;3131;42.630;23.382;2023-01-08T01:16:14;7.87;;;4.90;;
6195;SDS011;3131;42.630;23.382;2023-01-08T01:18:44;9.13;;;4.63;;
6195;SDS011;3131;42.630;23.382;2023-01-08T01:21:17;6.10;;;4.67;;
6195;SDS011;3131;42.630;23.382;2023-01-08T01:23:47;9.37;;;6.07;;
6195;SDS011;3131;42.630;23.382;2023-01-08T01:26:17;9.50;;;6.33;;
6195;SDS011;3131;42.630;23.382;2023-01-08T01:28:48;10.47;;;4.70;;
6195;SDS011;3131;42.630;23.382;2023-01-08T01:31:18;8.53;;;3.93;;
6195;SDS011;3131;42.630;23.382;2023-01-08T01:33:48;6.07;;;4.03;;
6195;SDS011;3131;42.630;23.382;2023-01-08T01:36:18;5.93;;;4.23;;
6195;SDS011;3131;42.630;23.382;2023-01-08T01:38:49;10.93;;;5.90;;
6195;SDS011;3131;42.630;23.382;2023-01-08T01:41:22;4.20;;;3.03;;
6195;SDS011;3131;42.630;23.382;2023-01-08T01:43:53;5.63;;;3.70;;
6195;SDS011;3131;42.630;23.382;2023-01-08T01:46:25;10.00;;;5.03;;
6195;SDS011;3131;42.630;23.382;2023-01-08T01:49:13;8.90;;;5.70;;
6195;SDS011;3131;42.630;23.382;2023-01-08T01:51:46;23.27;;;9.80;;
6195;SDS011;3131;42.630;23.382;2023-01-08T01:54:17;10.17;;;6.10;;
6195;SDS011;3131;42.630;23.382;2023-01-08T01:56:47;9.33;;;5.30;;
6195;SDS011;3131;42.630;23.382;2023-01-08T01:59:17;7.50;;;4.93;;
6195;SDS011;3131;42.630;23.382;2023-01-08T02:01:47;7.40;;;4.77;;
6195;SDS011;3131;42.630;23.382;2023-01-08T02:04:18;8.40;;;5.10;;
6195;SDS011;3131;42.630;23.382;2023-01-08T02:06:48;11.20;;;4.20;;
6195;SDS011;3131;42.630;23.382;2023-01-08T02:09:21;6.73;;;4.17;;
6195;SDS011;3131;42.630;23.382;2023-01-08T02:11:55;7.73;;;4.93;;
6195;SDS011;3131;42.630;23.382;2023-01-08T02:14:43;6.37;;;4.40;;
6195;SDS011;3131;42.630;23.382;2023-01-08T02:17:23;11.50;;;4.93;;
6195;SDS011;3131;42.630;23.382;2023-01-08T02:19:56;10.57;;;4.70;;
6195;SDS011;3131;42.630;23.382;2023-01-08T02:22:31;10.67;;;5.67;;
6195;SDS011;3131;42.630;23.382;2023-01-08T02:25:08;9.87;;;5.13;;
6195;SDS011;3131;42.630;23.382;2023-01-08T02:27:39;5.50;;;3.80;;
6195;SDS011;3131;42.630;23.382;2023-01-08T02:30:11;4.13;;;3.73;;
6195;SDS011;3131;42.630;23.382;2023-01-08T02:32:41;8.67;;;4.87;;
6195;SDS011;3131;42.630;23.382;2023-01-08T02:35:11;6.90;;;4.63;;
6195;SDS011;3131;42.630;23.382;2023-01-08T02:37:40;8.40;;;4.67;;
6195;SDS011;3131;42.630;23.382;2023-01-08T02:40:16;7.27;;;3.53;;
6195;SDS011;3131;42.630;23.382;2023-01-08T02:42:51;16.50;;;5.43;;
6195;SDS011;3131;42.630;23.382;2023-01-08T02:45:35;3.93;;;3.57;;
6195;SDS011;3131;42.630;23.382;2023-01-08T02:48:08;2.87;;;2.50;;
6195;SDS011;3131;42.630;23.382;2023-01-08T02:50:40;4.77;;;3.27;;
6195;SDS011;3131;42.630;23.382;2023-01-08T02:53:13;3.13;;;2.67;;
6195;SDS011;3131;42.630;23.382;2023-01-08T02:55:47;7.23;;;4.60;;
6195;SDS011;3131;42.630;23.382;2023-01-08T02:58:17;3.03;;;2.60;;
6195;SDS011;3131;42.630;23.382;2023-01-08T03:00:48;7.73;;;3.60;;
6195;SDS011;3131;42.630;23.382;2023-01-08T03:03:19;2.70;;;2.10;;
6195;SDS011;3131;42.630;23.382;2023-01-08T03:05:51;4.03;;;2.93;;
6195;SDS011;3131;42.630;23.382;2023-01-08T03:08:23;3.53;;;3.10;;
6195;SDS011;3131;42.630;23.382;2023-01-08T03:10:54;12.17;;;5.43;;
6195;SDS011;3131;42.630;23.382;2023-01-08T03:13:29;13.90;;;6.80;;
6195;SDS011;3131;42.630;23.382;2023-01-08T03:15:59;12.47;;;5.43;;
6195;SDS011;3131;42.630;23.382;2023-01-08T03:18:33;11.77;;;5.37;;
6195;SDS011;3131;42.630;23.382;2023-01-08T03:21:04;5.97;;;4.03;;
6195;SDS011;3131;42.630;23.382;2023-01-08T03:23:34;6.10;;;4.37;;
6195;SDS011;3131;42.630;23.382;2023-01-08T03:26:06;10.97;;;5.87;;
6195;SDS011;3131;42.630;23.382;2023-01-08T03:28:37;11.27;;;5.70;;
6195;SDS011;3131;42.630;23.382;2023-01-08T03:31:09;10.67;;;4.17;;
6195;SDS011;3131;42.630;23.382;2023-01-08T03:33:41;5.90;;;4.33;;
6195;SDS011;3131;42.630;23.382;2023-01-08T03:36:12;9.83;;;5.53;;
6195;SDS011;3131;42.630;23.382;2023-01-08T03:38:44;4.00;;;3.03;;
6195;SDS011;3131;42.630;23.382;2023-01-08T03:41:17;11.10;;;5.77;;
6195;SDS011;3131;42.630;23.382;2023-01-08T03:43:48;10.90;;;5.70;;
6195;SDS011;3131;42.630;23.382;2023-01-08T03:46:20;10.17;;;6.00;;
6195;SDS011;3131;42.630;23.382;2023-01-08T03:48:50;8.80;;;5.43;;
6195;SDS011;3131;42.630;23.382;2023-01-08T03:51:20;8.43;;;4.93;;
6195;SDS011;3131;42.630;23.382;2023-01-08T03:53:51;6.70;;;4.13;;
6195;SDS011;3131;42.630;23.382;2023-01-08T03:56:32;8.70;;;4.73;;
6195;SDS011;3131;42.630;23.382;2023-01-08T03:59:01;5.40;;;4.00;;
6195;SDS011;3131;42.630;23.382;2023-01-08T04:01:31;8.93;;;4.97;;
6195;SDS011;3131;42.630;23.382;2023-01-08T04:04:00;6.03;;;4.10;;
6195;SDS011;3131;42.630;23.382;2023-01-08T04:06:30;7.37;;;3.70;;
6195;SDS011;3131;42.630;23.382;2023-01-08T04:08:59;5.57;;;3.53;;
6195;SDS011;3131;42.630;23.382;2023-01-08T04:11:29;7.93;;;4.30;;
6195;SDS011;3131;42.630;23.382;2023-01-08T04:13:59;7.37;;;4.57;;
6195;SDS011;3131;42.630;23.382;2023-01-08T04:16:28;6.93;;;3.70;;
6195;SDS011;3131;42.630;23.382;2023-01-08T04:18:59;4.70;;;2.80;;
6195;SDS011;3131;42.630;23.382;2023-01-08T04:21:29;5.47;;;2.97;;
6195;SDS011;3131;42.630;23.382;2023-01-08T04:23:58;2.70;;;2.50;;
6195;SDS011;3131;42.630;23.382;2023-01-08T04:26:28;7.67;;;3.87;;
6195;SDS011;3131;42.630;23.382;2023-01-08T04:28:58;8.93;;;4.60;;
6195;SDS011;3131;42.630;23.382;2023-01-08T04:31:29;10.03;;;5.27;;
6195;SDS011;3131;42.630;23.382;2023-01-08T04:33:59;3.73;;;3.20;;
6195;SDS011;3131;42.630;23.382;2023-01-08T04:36:29;3.17;;;2.63;;
6195;SDS011;3131;42.630;23.382;2023-01-08T04:38:58;4.30;;;3.43;;
6195;SDS011;3131;42.630;23.382;2023-01-08T04:41:27;4.60;;;3.37;;
6195;SDS011;3131;42.630;23.382;2023-01-08T04:43:57;6.77;;;3.93;;
6195;SDS011;3131;42.630;23.382;2023-01-08T04:46:26;8.17;;;3.57;;
6195;SDS011;3131;42.630;23.382;2023-01-08T04:48:56;6.00;;;4.20;;
6195;SDS011;3131;42.630;23.382;2023-01-08T04:51:25;4.50;;;3.40;;
6195;SDS011;3131;42.630;23.382;2023-01-08T04:53:55;7.97;;;4.40;;
6195;SDS011;3131;42.630;23.382;2023-01-08T04:56:25;7.50;;;5.30;;
6195;SDS011;3131;42.630;23.382;2023-01-08T04:58:54;9.83;;;5.37;;
6195;SDS011;3131;42.630;23.382;2023-01-08T05:01:24;6.23;;;4.37;;
6195;SDS011;3131;42.630;23.382;2023-01-08T05:03:55;7.73;;;4.60;;
6195;SDS011;3131;42.630;23.382;2023-01-08T05:06:26;8.90;;;4.90;;
6195;SDS011;3131;42.630;23.382;2023-01-08T05:08:56;12.03;;;4.83;;
6195;SDS011;3131;42.630;23.382;2023-01-08T05:11:26;9.23;;;4.80;;
6195;SDS011;3131;42.630;23.382;2023-01-08T05:13:55;8.33;;;3.53;;
6195;SDS011;3131;42.630;23.382;2023-01-08T05:16:25;3.33;;;3.03;;
6195;SDS011;3131;42.630;23.382;2023-01-08T05:18:54;7.50;;;3.67;;
6195;SDS011;3131;42.630;23.382;2023-01-08T05:21:24;6.33;;;2.90;;
6195;SDS011;3131;42.630;23.382;2023-01-08T05:23:53;3.30;;;3.00;;
6195;SDS011;3131;42.630;23.382;2023-01-08T05:26:22;11.37;;;4.57;;
6195;SDS011;3131;42.630;23.382;2023-01-08T05:28:53;7.63;;;3.80;;
6195;SDS011;3131;42.630;23.382;2023-01-08T05:31:22;5.10;;;4.20;;
6195;SDS011;3131;42.630;23.382;2023-01-08T05:33:51;5.40;;;3.30;;
6195;SDS011;3131;42.630;23.382;2023-01-08T05:36:21;8.50;;;4.70;;
6195;SDS011;3131;42.630;23.382;2023-01-08T05:38:50;3.97;;;3.07;;
6195;SDS011;3131;42.630;23.382;2023-01-08T05:41:19;7.47;;;3.27;;
6195;SDS011;3131;42.630;23.382;2023-01-08T05:43:49;10.90;;;5.33;;
6195;SDS011;3131;42.630;23.382;2023-01-08T05:46:18;7.53;;;4.87;;
6195;SDS011;3131;42.630;23.382;2023-01-08T05:48:48;4.80;;;4.17;;
6195;SDS011;3131;42.630;23.382;2023-01-08T05:51:17;8.60;;;4.77;;
6195;SDS011;3131;42.630;23.382;2023-01-08T05:53:47;4.20;;;3.77;;
6195;SDS011;3131;42.630;23.382;2023-01-08T05:56:16;7.40;;;3.50;;
6195;SDS011;3131;42.630;23.382;2023-01-08T05:58:45;7.00;;;3.87;;
6195;SDS011;3131;42.630;23.382;2023-01-08T06:01:14;6.93;;;4.93;;
6195;SDS011;3131;42.630;23.382;2023-01-08T06:03:44;11.33;;;4.90;;
6195;SDS011;3131;42.630;23.382;2023-01-08T06:06:13;10.80;;;5.17;;
6195;SDS011;3131;42.630;23.382;2023-01-08T06:08:43;11.50;;;5.23;;
6195;SDS011;3131;42.630;23.382;2023-01-08T06:11:14;9.03;;;4.37;;
6195;SDS011;3131;42.630;23.382;2023-01-08T06:13:44;4.77;;;3.47;;
6195;SDS011;3131;42.630;23.382;2023-01-08T06:16:13;11.40;;;4.20;;
6195;SDS011;3131;42.630;23.382;2023-01-08T06:18:42;4.80;;;2.90;;
6195;SDS011;3131;42.630;23.382;2023-01-08T06:21:12;3.13;;;2.83;;
6195;SDS011;3131;42.630;23.382;2023-01-08T06:23:41;4.63;;;3.43;;
6195;SDS011;3131;42.630;23.382;2023-01-08T06:26:22;5.77;;;4.50;;
6195;SDS011;3131;42.630;23.382;2023-01-08T06:28:51;7.73;;;3.70;;
6195;SDS011;3131;42.630;23.382;2023-01-08T06:31:21;6.47;;;4.10;;
6195;SDS011;3131;42.630;23.382;2023-01-08T06:33:50;9.57;;;5.23;;
6195;SDS011;3131;42.630;23.382;2023-01-08T06:36:19;8.53;;;5.40;;
6195;SDS011;3131;42.630;23.382;2023-01-08T06:38:49;8.40;;;4.93;;
6195;SDS011;3131;42.630;23.382;2023-01-08T06:41:18;10.00;;;5.43;;
6195;SDS011;3131;42.630;23.382;2023-01-08T06:43:48;14.33;;;5.60;;
6195;SDS011;3131;42.630;23.382;2023-01-08T06:46:17;5.57;;;4.17;;
6195;SDS011;3131;42.630;23.382;2023-01-08T06:48:47;11.03;;;5.23;;
6195;SDS011;3131;42.630;23.382;2023-01-08T06:51:16;6.30;;;4.70;;
6195;SDS011;3131;42.630;23.382;2023-01-08T06:53:47;9.00;;;5.23;;
6195;SDS011;3131;42.630;23.382;2023-01-08T06:56:16;10.03;;;5.63;;
6195;SDS011;3131;42.630;23.382;2023-01-08T06:58:46;7.43;;;4.73;;
6195;SDS011;3131;42.630;23.382;2023-01-08T07:01:15;6.97;;;4.63;;
6195;SDS011;3131;42.630;23.382;2023-01-08T07:03:44;11.30;;;5.03;;
6195;SDS011;3131;42.630;23.382;2023-01-08T07:06:14;12.50;;;4.73;;
6195;SDS011;3131;42.630;23.382;2023-01-08T07:08:45;13.03;;;6.20;;
6195;SDS011;3131;42.630;23.382;2023-01-08T07:11:15;7.47;;;4.90;;
6195;SDS011;3131;42.630;23.382;2023-01-08T07:13:45;7.47;;;5.40;;
6195;SDS011;3131;42.630;23.382;2023-01-08T07:16:14;9.23;;;5.53;;
6195;SDS011;3131;42.630;23.382;2023-01-08T07:18:44;9.27;;;5.17;;
6195;SDS011;3131;42.630;23.382;2023-01-08T07:21:13;9.80;;;5.60;;
6195;SDS011;3131;42.630;23.382;2023-01-08T07:23:42;6.10;;;4.83;;
6195;SDS011;3131;42.630;23.382;2023-01-08T07:26:14;10.23;;;5.97;;
6195;SDS011;3131;42.630;23.382;2023-01-08T07:28:43;8.70;;;5.60;;
6195;SDS011;3131;42.630;23.382;2023-01-08T07:31:13;9.87;;;6.30;;
6195;SDS011;3131;42.630;23.382;2023-01-08T07:33:42;8.80;;;4.17;;
6195;SDS011;3131;42.630;23.382;2023-01-08T07:36:11;9.37;;;4.13;;
6195;SDS011;3131;42.630;23.382;2023-01-08T07:38:41;5.50;;;4.30;;
6195;SDS011;3131;42.630;23.382;2023-01-08T07:41:11;8.60;;;5.13;;
6195;SDS011;3131;42.630;23.382;2023-01-08T07:43:41;6.23;;;4.77;;
6195;SDS011;3131;42.630;23.382;2023-01-08T07:46:10;28.63;;;13.43;;
6195;SDS011;3131;42.630;23.382;2023-01-08T07:48:39;46.03;;;22.00;;
6195;SDS011;3131;42.630;23.382;2023-01-08T07:51:09;47.73;;;24.03;;
6195;SDS011;3131;42.630;23.382;2023-01-08T07:53:38;44.43;;;24.20;;
6195;SDS011;3131;42.630;23.382;2023-01-08T07:56:08;47.50;;;24.80;;
6195;SDS011;3131;42.630;23.382;2023-01-08T07:58:38;50.40;;;26.00;;
6195;SDS011;3131;42.630;23.382;2023-01-08T08:01:08;50.77;;;24.47;;
6195;SDS011;3131;42.630;23.382;2023-01-08T08:03:38;41.03;;;24.17;;
6195;SDS011;3131;42.630;23.382;2023-01-08T08:06:08;49.50;;;25.27;;
6195;SDS011;3131;42.630;23.382;2023-01-08T08:08:37;46.57;;;23.60;;
6195;SDS011;3131;42.630;23.382;2023-01-08T08:11:07;40.83;;;21.17;;
6195;SDS011;3131;42.630;23.382;2023-01-08T08:13:53;42.77;;;22.60;;
6195;SDS011;3131;42.630;23.382;2023-01-08T08:16:23;28.77;;;17.90;;
6195;SDS011;3131;42.630;23.382;2023-01-08T08:18:52;26.10;;;14.77;;
6195;SDS011;3131;42.630;23.382;2023-01-08T08:21:23;25.43;;;15.77;;
6195;SDS011;3131;42.630;23.382;2023-01-08T08:23:54;23.23;;;12.73;;
6195;SDS011;3131;42.630;23.382;2023-01-08T08:26:24;26.50;;;14.90;;
6195;SDS011;3131;42.630;23.382;2023-01-08T08:28:53;20.47;;;11.63;;
6195;SDS011;3131;42.630;23.382;2023-01-08T08:31:23;23.57;;;13.07;;
6195;SDS011;3131;42.630;23.382;2023-01-08T08:33:52;21.57;;;11.33;;
6195;SDS011;3131;42.630;23.382;2023-01-08T08:36:21;21.20;;;12.43;;
6195;SDS011;3131;42.630;23.382;2023-01-08T08:38:55;30.53;;;12.83;;
6195;SDS011;3131;42.630;23.382;2023-01-08T08:41:24;24.57;;;12.87;;
6195;SDS011;3131;42.630;23.382;2023-01-08T08:43:54;29.87;;;12.97;;
6195;SDS011;3131;42.630;23.382;2023-01-08T08:46:23;22.50;;;12.23;;
6195;SDS011;3131;42.630;23.382;2023-01-08T08:48:53;26.77;;;15.73;;
6195;SDS011;3131;42.630;23.382;2023-01-08T08:51:22;34.80;;;15.13;;
6195;SDS011;3131;42.630;23.382;2023-01-08T08:53:52;22.70;;;13.97;;
6195;SDS011;3131;42.630;23.382;2023-01-08T08:56:21;26.93;;;14.17;;
6195;SDS011;3131;42.630;23.382;2023-01-08T08:58:50;28.10;;;15.13;;
6195;SDS011;3131;42.630;23.382;2023-01-08T09:01:20;24.60;;;16.40;;
6195;SDS011;3131;42.630;23.382;2023-01-08T09:03:49;35.80;;;16.83;;
6195;SDS011;3131;42.630;23.382;2023-01-08T09:06:18;42.17;;;16.90;;
6195;SDS011;3131;42.630;23.382;2023-01-08T09:08:49;32.57;;;17.23;;
6195;SDS011;3131;42.630;23.382;2023-01-08T09:11:20;28.70;;;16.87;;
6195;SDS011;3131;42.630;23.382;2023-01-08T09:13:49;36.63;;;18.93;;
6195;SDS011;3131;42.630;23.382;2023-01-08T09:16:18;37.37;;;19.33;;
6195;SDS011;3131;42.630;23.382;2023-01-08T09:18:48;43.07;;;18.73;;
6195;SDS011;3131;42.630;23.382;2023-01-08T09:21:17;28.83;;;17.70;;
6195;SDS011;3131;42.630;23.382;2023-01-08T09:23:47;31.77;;;17.70;;
6195;SDS011;3131;42.630;23.382;2023-01-08T09:26:16;30.80;;;17.53;;
6195;SDS011;3131;42.630;23.382;2023-01-08T09:28:46;28.77;;;17.03;;
6195;SDS011;3131;42.630;23.382;2023-01-08T09:31:16;33.20;;;18.13;;
6195;SDS011;3131;42.630;23.382;2023-01-08T09:33:46;35.20;;;16.83;;
6195;SDS011;3131;42.630;23.382;2023-01-08T09:36:16;26.63;;;16.20;;
6195;SDS011;3131;42.630;23.382;2023-01-08T09:38:46;27.80;;;16.83;;
6195;SDS011;3131;42.630;23.382;2023-01-08T09:41:16;28.37;;;16.33;;
6195;SDS011;3131;42.630;23.382;2023-01-08T09:43:49;32.60;;;15.10;;
6195;SDS011;3131;42.630;23.382;2023-01-08T09:46:20;26.23;;;14.47;;
6195;SDS011;3131;42.630;23.382;2023-01-08T09:48:51;29.97;;;15.67;;
6195;SDS011;3131;42.630;23.382;2023-01-08T09:51:26;33.90;;;15.37;;
6195;SDS011;3131;42.630;23.382;2023-01-08T09:53:56;30.27;;;15.13;;
6195;SDS011;3131;42.630;23.382;2023-01-08T09:56:26;34.90;;;16.10;;
6195;SDS011;3131;42.630;23.382;2023-01-08T09:58:57;24.43;;;14.83;;
6195;SDS011;3131;42.630;23.382;2023-01-08T10:01:29;23.37;;;14.33;;
6195;SDS011;3131;42.630;23.382;2023-01-08T10:04:03;24.03;;;14.90;;
6195;SDS011;3131;42.630;23.382;2023-01-08T10:06:35;24.70;;;13.83;;
6195;SDS011;3131;42.630;23.382;2023-01-08T10:09:04;24.07;;;13.77;;
6195;SDS011;3131;42.630;23.382;2023-01-08T10:11:37;28.37;;;13.67;;
6195;SDS011;3131;42.630;23.382;2023-01-08T10:14:07;37.13;;;15.13;;
6195;SDS011;3131;42.630;23.382;2023-01-08T10:16:51;26.17;;;13.57;;
6195;SDS011;3131;42.630;23.382;2023-01-08T10:19:22;33.53;;;13.90;;
6195;SDS011;3131;42.630;23.382;2023-01-08T10:21:52;20.43;;;12.57;;
6195;SDS011;3131;42.630;23.382;2023-01-08T10:24:33;27.33;;;12.40;;
6195;SDS011;3131;42.630;23.382;2023-01-08T10:27:05;20.30;;;12.20;;
6195;SDS011;3131;42.630;23.382;2023-01-08T10:29:36;15.63;;;10.97;;
6195;SDS011;3131;42.630;23.382;2023-01-08T10:32:07;17.83;;;11.70;;
6195;SDS011;3131;42.630;23.382;2023-01-08T10:34:41;21.33;;;11.13;;
6195;SDS011;3131;42.630;23.382;2023-01-08T10:37:14;22.87;;;12.40;;
6195;SDS011;3131;42.630;23.382;2023-01-08T10:39:58;21.27;;;12.90;;
6195;SDS011;3131;42.630;23.382;2023-01-08T10:42:31;23.10;;;12.90;;
6195;SDS011;3131;42.630;23.382;2023-01-08T10:45:02;27.67;;;12.27;;
6195;SDS011;3131;42.630;23.382;2023-01-08T10:47:45;19.80;;;12.23;;
6195;SDS011;3131;42.630;23.382;2023-01-08T10:50:19;34.53;;;13.90;;
6195;SDS011;3131;42.630;23.382;2023-01-08T10:52:53;22.37;;;12.07;;
6195;SDS011;3131;42.630;23.382;2023-01-08T10:55:25;25.43;;;12.27;;
6195;SDS011;3131;42.630;23.382;2023-01-08T10:57:57;22.77;;;15.03;;
6195;SDS011;3131;42.630;23.382;2023-01-08T11:00:29;27.70;;;15.50;;
6195;SDS011;3131;42.630;23.382;2023-01-08T11:03:00;31.50;;;16.17;;
6195;SDS011;3131;42.630;23.382;2023-01-08T11:05:32;30.37;;;16.60;;
6195;SDS011;3131;42.630;23.382;2023-01-08T11:08:05;31.37;;;18.07;;
6195;SDS011;3131;42.630;23.382;2023-01-08T11:10:36;32.43;;;18.13;;
6195;SDS011;3131;42.630;23.382;2023-01-08T11:13:06;27.43;;;17.63;;
6195;SDS011;3131;42.630;23.382;2023-01-08T11:15:42;25.13;;;17.77;;
6195;SDS011;3131;42.630;23.382;2023-01-08T11:18:14;40.40;;;19.37;;
6195;SDS011;3131;42.630;23.382;2023-01-08T11:20:46;34.43;;;18.93;;
6195;SDS011;3131;42.630;23.382;2023-01-08T11:23:18;33.27;;;18.23;;
6195;SDS011;3131;42.630;23.382;2023-01-08T11:25:50;27.60;;;18.33;;
6195;SDS011;3131;42.630;23.382;2023-01-08T11:28:24;30.77;;;16.63;;
6195;SDS011;3131;42.630;23.382;2023-01-08T11:31:01;35.53;;;18.87;;
6195;SDS011;3131;42.630;23.382;2023-01-08T11:33:32;32.47;;;16.80;;
6195;SDS011;3131;42.630;23.382;2023-01-08T11:36:07;31.47;;;15.57;;
6195;SDS011;3131;42.630;23.382;2023-01-08T11:38:39;28.77;;;16.57;;
6195;SDS011;3131;42.630;23.382;2023-01-08T11:41:11;33.60;;;16.07;;
6195;SDS011;3131;42.630;23.382;2023-01-08T11:43:49;27.13;;;17.60;;
6195;SDS011;3131;42.630;23.382;2023-01-08T11:46:31;25.57;;;16.03;;
6195;SDS011;3131;42.630;23.382;2023-01-08T11:49:12;29.90;;;17.07;;
6195;SDS011;3131;42.630;23.382;2023-01-08T11:51:57;34.47;;;16.07;;
6195;SDS011;3131;42.630;23.382;2023-01-08T11:54:36;26.67;;;16.30;;
6195;SDS011;3131;42.630;23.382;2023-01-08T11:57:21;27.10;;;15.93;;
6195;SDS011;3131;42.630;23.382;2023-01-08T12:00:06;37.37;;;18.17;;
6195;SDS011;3131;42.630;23.382;2023-01-08T12:02:45;29.53;;;16.73;;
6195;SDS011;3131;42.630;23.382;2023-01-08T12:05:23;29.53;;;17.83;;
6195;SDS011;3131;42.630;23.382;2023-01-08T12:07:57;37.20;;;18.00;;
6195;SDS011;3131;42.630;23.382;2023-01-08T12:10:31;32.73;;;16.23;;
6195;SDS011;3131;42.630;23.382;2023-01-08T12:13:18;39.77;;;20.20;;
6195;SDS011;3131;42.630;23.382;2023-01-08T12:16:14;31.83;;;17.03;;
6195;SDS011;3131;42.630;23.382;2023-01-08T12:18:59;28.33;;;18.40;;
6195;SDS011;3131;42.630;23.382;2023-01-08T12:21:55;32.43;;;18.93;;
6195;SDS011;3131;42.630;23.382;2023-01-08T12:24:34;28.70;;;17.07;;
6195;SDS011;3131;42.630;23.382;2023-01-08T12:27:26;30.40;;;16.87;;
6195;SDS011;3131;42.630;23.382;2023-01-08T12:30:09;34.43;;;16.83;;
6195;SDS011;3131;42.630;23.382;2023-01-08T12:32:44;35.80;;;18.57;;
6195;SDS011;3131;42.630;23.382;2023-01-08T12:35:31;33.93;;;16.47;;
6195;SDS011;3131;42.630;23.382;2023-01-08T12:38:07;29.60;;;17.67;;
6195;SDS011;3131;42.630;23.382;2023-01-08T12:40:48;32.70;;;16.63;;
6195;SDS011;3131;42.630;23.382;2023-01-08T12:43:21;25.50;;;17.00;;
6195;SDS011;3131;42.630;23.382;2023-01-08T12:45:53;29.53;;;17.50;;
6195;SDS011;3131;42.630;23.382;2023-01-08T12:48:26;31.27;;;18.53;;
6195;SDS011;3131;42.630;23.382;2023-01-08T12:50:58;27.33;;;17.40;;
6195;SDS011;3131;42.630;23.382;2023-01-08T12:53:33;34.03;;;17.87;;
6195;SDS011;3131;42.630;23.382;2023-01-08T12:56:08;31.43;;;17.37;;
6195;SDS011;3131;42.630;23.382;2023-01-08T12:58:47;32.33;;;17.43;;
6195;SDS011;3131;42.630;23.382;2023-01-08T13:01:23;33.93;;;17.50;;
6195;SDS011;3131;42.630;23.382;2023-01-08T13:03:55;30.97;;;18.03;;
6195;SDS011;3131;42.630;23.382;2023-01-08T13:06:26;38.97;;;17.63;;
6195;SDS011;3131;42.630;23.382;2023-01-08T13:08:57;32.03;;;17.60;;
6195;SDS011;3131;42.630;23.382;2023-01-08T13:11:27;35.27;;;16.27;;
6195;SDS011;3131;42.630;23.382;2023-01-08T13:14:00;31.47;;;15.87;;
6195;SDS011;3131;42.630;23.382;2023-01-08T13:16:31;37.23;;;17.30;;
6195;SDS011;3131;42.630;23.382;2023-01-08T13:19:04;40.13;;;17.13;;
6195;SDS011;3131;42.630;23.382;2023-01-08T13:21:36;39.30;;;17.60;;
6195;SDS011;3131;42.630;23.382;2023-01-08T13:24:29;32.20;;;16.97;;
6195;SDS011;3131;42.630;23.382;2023-01-08T13:27:25;33.27;;;17.63;;
6195;SDS011;3131;42.630;23.382;2023-01-08T13:29:56;34.87;;;17.73;;
6195;SDS011;3131;42.630;23.382;2023-01-08T13:32:35;39.77;;;19.60;;
6195;SDS011;3131;42.630;23.382;2023-01-08T13:35:22;36.20;;;19.27;;
6195;SDS011;3131;42.630;23.382;2023-01-08T13:38:04;34.17;;;17.77;;
6195;SDS011;3131;42.630;23.382;2023-01-08T13:40:52;42.43;;;20.00;;
6195;SDS011;3131;42.630;23.382;2023-01-08T13:43:23;42.83;;;18.60;;
6195;SDS011;3131;42.630;23.382;2023-01-08T13:46:04;35.83;;;18.53;;
6195;SDS011;3131;42.630;23.382;2023-01-08T13:48:37;34.30;;;17.43;;
6195;SDS011;3131;42.630;23.382;2023-01-08T13:51:18;43.53;;;18.30;;
6195;SDS011;3131;42.630;23.382;2023-01-08T13:54:05;33.53;;;17.63;;
6195;SDS011;3131;42.630;23.382;2023-01-08T13:56:43;30.90;;;17.87;;
6195;SDS011;3131;42.630;23.382;2023-01-08T13:59:18;37.00;;;18.87;;
6195;SDS011;3131;42.630;23.382;2023-01-08T14:01:52;32.33;;;16.73;;
6195;SDS011;3131;42.630;23.382;2023-01-08T14:04:23;35.07;;;17.27;;
6195;SDS011;3131;42.630;23.382;2023-01-08T14:06:52;38.87;;;17.23;;
6195;SDS011;3131;42.630;23.382;2023-01-08T14:09:33;33.53;;;16.50;;
6195;SDS011;3131;42.630;23.382;2023-01-08T14:12:03;31.57;;;16.23;;
6195;SDS011;3131;42.630;23.382;2023-01-08T14:14:32;32.77;;;17.60;;
6195;SDS011;3131;42.630;23.382;2023-01-08T14:17:14;42.70;;;18.20;;
6195;SDS011;3131;42.630;23.382;2023-01-08T14:19:45;39.80;;;18.23;;
6195;SDS011;3131;42.630;23.382;2023-01-08T14:22:17;45.00;;;19.40;;
6195;SDS011;3131;42.630;23.382;2023-01-08T14:24:51;43.83;;;20.10;;
6195;SDS011;3131;42.630;23.382;2023-01-08T14:27:22;40.47;;;19.40;;
6195;SDS011;3131;42.630;23.382;2023-01-08T14:29:54;47.30;;;20.20;;
6195;SDS011;3131;42.630;23.382;2023-01-08T14:32:24;41.83;;;17.77;;
6195;SDS011;3131;42.630;23.382;2023-01-08T14:34:55;36.83;;;18.00;;
6195;SDS011;3131;42.630;23.382;2023-01-08T14:37:26;44.43;;;19.53;;
6195;SDS011;3131;42.630;23.382;2023-01-08T14:39:55;44.27;;;17.73;;
6195;SDS011;3131;42.630;23.382;2023-01-08T14:42:27;36.50;;;18.07;;
6195;SDS011;3131;42.630;23.382;2023-01-08T14:45:14;36.77;;;19.70;;
6195;SDS011;3131;42.630;23.382;2023-01-08T14:47:47;58.93;;;21.07;;
6195;SDS011;3131;42.630;23.382;2023-01-08T14:50:19;73.87;;;22.80;;
6195;SDS011;3131;42.630;23.382;2023-01-08T14:52:51;44.00;;;19.47;;
6195;SDS011;3131;42.630;23.382;2023-01-08T14:55:41;42.17;;;21.63;;
6195;SDS011;3131;42.630;23.382;2023-01-08T14:58:13;45.33;;;22.67;;
6195;SDS011;3131;42.630;23.382;2023-01-08T15:00:45;47.30;;;22.97;;
6195;SDS011;3131;42.630;23.382;2023-01-08T15:03:26;42.63;;;22.70;;
6195;SDS011;3131;42.630;23.382;2023-01-08T15:05:58;53.67;;;24.40;;
6195;SDS011;3131;42.630;23.382;2023-01-08T15:08:32;47.40;;;23.20;;
6195;SDS011;3131;42.630;23.382;2023-01-08T15:11:04;50.97;;;24.73;;
6195;SDS011;3131;42.630;23.382;2023-01-08T15:13:37;63.93;;;27.60;;
6195;SDS011;3131;42.630;23.382;2023-01-08T15:16:07;54.07;;;26.03;;